Time;durP1;ratioP1;P1;durP2;ratioP2;P2;SDS_P1;SDS_P2;PMS_P1;PMS_P2;Temp;Humidity;BMP_temperature;BMP_pressure;BME280_temperature;BME280_humidity;BME280_pressure;Samples;Min_cycle;Max_cycle;Signal;HPM_P1;HPM_P2
2021/12/21 00:01:07;;;;;;;;;109.60;90.80;18.90;99.90;;;;;;5058208;28;8710;-65
2021/12/21 00:03:34;;;;;;;;;110.60;90.60;18.90;99.90;;;;;;5057454;28;8750;-65
2021/12/21 00:06:01;;;;;;;;;101.20;88.00;19.00;99.90;;;;;;5057819;28;8754;-64
2021/12/21 00:08:30;;;;;;;;;124.80;106.00;19.00;99.90;;;;;;5057282;28;8726;-65
2021/12/21 00:10:59;;;;;;;;;123.80;101.60;19.00;99.90;;;;;;5058062;28;9951;-65
2021/12/21 00:18:33;;;;;;;;;118.00;99.20;19.00;99.90;;;;;;5056145;28;8736;-65
2021/12/21 00:23:35;;;;;;;;;105.20;93.40;19.00;99.90;;;;;;5056851;28;8722;-65
2021/12/21 00:26:12;;;;;;;;;118.60;100.80;19.10;99.90;;;;;;5057449;28;8784;-64
2021/12/21 00:31:16;;;;;;;;;135.60;107.80;19.20;99.90;;;;;;5040980;28;8831;-65
2021/12/21 00:33:46;;;;;;;;;98.00;84.80;19.10;99.90;;;;;;5055811;28;8737;-64
2021/12/21 00:36:16;;;;;;;;;110.20;91.80;19.20;99.90;;;;;;5057361;28;8770;-64
2021/12/21 00:38:43;;;;;;;;;106.00;85.80;19.20;99.90;;;;;;5057089;28;8758;-65
2021/12/21 00:41:10;;;;;;;;;93.60;80.00;19.20;99.90;;;;;;5056131;28;8753;-64
2021/12/21 00:43:37;;;;;;;;;104.00;83.40;19.30;99.90;;;;;;5056712;28;8912;-64
2021/12/21 00:46:03;;;;;;;;;110.80;97.60;19.20;99.90;;;;;;5057892;28;9546;-64
2021/12/21 00:48:32;;;;;;;;;82.20;74.80;19.30;99.90;;;;;;5038906;28;9095;-64
2021/12/21 00:51:00;;;;;;;;;91.20;78.00;19.20;99.90;;;;;;5056987;28;8750;-64
2021/12/21 00:53:27;;;;;;;;;71.60;59.80;19.30;99.90;;;;;;5055684;28;8721;-64
2021/12/21 00:55:54;;;;;;;;;82.20;71.20;19.40;99.90;;;;;;5057010;28;9026;-65
2021/12/21 00:58:21;;;;;;;;;84.40;70.80;19.50;99.90;;;;;;5056463;28;8762;-64
2021/12/21 01:00:48;;;;;;;;;84.20;68.40;19.50;99.90;;;;;;5056884;28;8884;-64
2021/12/21 01:03:16;;;;;;;;;88.20;70.00;19.50;99.90;;;;;;5038775;28;9454;-65
2021/12/21 01:08:23;;;;;;;;;90.60;76.60;19.50;99.90;;;;;;5056636;28;8769;-64
2021/12/21 01:11:04;;;;;;;;;83.60;69.40;19.60;99.90;;;;;;5056452;28;9092;-64
2021/12/21 01:17:08;;;;;;;;;93.40;75.40;19.70;99.90;;;;;;5056761;28;8750;-64
2021/12/21 01:19:32;;;;;;;;;98.80;86.40;19.80;99.90;;;;;;5049489;28;8742;-64
2021/12/21 01:22:52;;;;;;;;;107.80;90.60;19.80;99.90;;;;;;5056447;28;8844;-64
2021/12/21 01:35:16;;;;;;;;;90.40;78.40;19.90;99.90;;;;;;5056439;28;8864;-65
2021/12/21 01:37:54;;;;;;;;;89.00;74.80;20.00;99.90;;;;;;5056564;28;8734;-65
2021/12/21 01:40:32;;;;;;;;;96.00;83.20;20.00;99.90;;;;;;5056652;28;9530;-65
2021/12/21 01:51:13;;;;;;;;;90.00;77.80;20.30;99.90;;;;;;5056808;28;8753;-64
2021/12/21 01:53:40;;;;;;;;;87.20;73.00;20.40;99.90;;;;;;5056039;28;8781;-65
2021/12/21 01:56:07;;;;;;;;;94.20;81.40;20.50;99.90;;;;;;5038589;28;9407;-65
2021/12/21 01:58:37;;;;;;;;;90.40;77.40;20.50;99.90;;;;;;5055015;28;8780;-65
2021/12/21 02:01:05;;;;;;;;;92.40;80.40;20.50;99.90;;;;;;5047538;28;8757;-65
2021/12/21 02:03:32;;;;;;;;;92.80;81.20;20.60;99.90;;;;;;5034701;28;8800;-65
2021/12/21 02:05:59;;;;;;;;;92.80;81.80;20.90;99.70;;;;;;5036178;28;8814;-65
2021/12/21 02:08:25;;;;;;;;;110.60;98.00;21.00;99.50;;;;;;5035995;28;8776;-65
2021/12/21 02:10:52;;;;;;;;;114.60;98.00;21.00;99.80;;;;;;5037963;28;9033;-65
2021/12/21 02:13:19;;;;;;;;;116.80;95.20;21.10;99.90;;;;;;5038861;28;8838;-65
2021/12/21 02:15:45;;;;;;;;;116.40;94.20;21.20;99.90;;;;;;5044852;28;8761;-65
2021/12/21 02:18:59;;;;;;;;;118.40;97.60;21.30;99.80;;;;;;5058142;28;9461;-65
2021/12/21 02:21:19;;;;;;;;;118.40;97.80;21.40;99.70;;;;;;5050622;28;8808;-65
2021/12/21 02:23:47;;;;;;;;;97.20;81.00;21.40;99.80;;;;;;5059618;28;8784;-64
2021/12/21 02:31:07;;;;;;;;;94.20;81.80;21.20;99.90;;;;;;5059853;28;8864;-65
2021/12/21 02:33:35;;;;;;;;;98.60;84.00;21.30;99.90;;;;;;5058788;28;9076;-65
2021/12/21 02:36:02;;;;;;;;;104.80;90.20;21.60;99.50;;;;;;5059152;28;9468;-65
2021/12/21 02:38:29;;;;;;;;;99.00;82.40;21.80;99.00;;;;;;5057940;28;8769;-65
2021/12/21 02:40:56;;;;;;;;;86.00;75.00;22.00;99.00;;;;;;5058185;28;8766;-65
2021/12/21 02:43:22;;;;;;;;;85.60;80.60;22.10;98.70;;;;;;5064555;28;8755;-65
2021/12/21 02:45:49;;;;;;;;;91.20;79.60;22.30;98.30;;;;;;5059272;28;8762;-65
2021/12/21 02:48:16;;;;;;;;;80.00;71.40;22.40;98.00;;;;;;5071761;28;8854;-64
2021/12/21 02:50:43;;;;;;;;;88.80;81.60;22.50;97.80;;;;;;5079292;28;8900;-65
2021/12/21 02:53:10;;;;;;;;;88.40;74.60;22.60;97.50;;;;;;5079201;28;8751;-65
2021/12/21 02:55:36;;;;;;;;;87.80;75.40;22.80;97.50;;;;;;5078783;28;8833;-65
2021/12/21 02:58:04;;;;;;;;;78.00;63.60;22.80;97.20;;;;;;5061468;28;8808;-65
2021/12/21 03:00:31;;;;;;;;;81.40;74.00;22.70;97.30;;;;;;5078484;28;8749;-65
2021/12/21 03:03:06;;;;;;;;;74.60;61.20;22.50;97.60;;;;;;5078727;28;8792;-65
2021/12/21 03:05:32;;;;;;;;;74.60;62.20;22.50;97.50;;;;;;5078108;28;8796;-65
2021/12/21 03:08:17;;;;;;;;;78.20;62.20;22.70;96.90;;;;;;5078651;28;8926;-65
2021/12/21 03:14:04;;;;;;;;;73.00;59.60;22.90;96.70;;;;;;5056093;28;8748;-65
2021/12/21 03:16:35;;;;;;;;;74.20;60.00;22.40;97.00;;;;;;5058322;28;9437;-65
2021/12/21 03:19:03;;;;;;;;;79.40;63.60;22.50;97.00;;;;;;5061247;28;8776;-65
2021/12/21 03:21:30;;;;;;;;;72.40;60.00;22.40;97.10;;;;;;5059507;28;8792;-65
2021/12/21 03:23:56;;;;;;;;;76.80;58.00;22.70;96.50;;;;;;5060697;28;8805;-65
2021/12/21 03:26:23;;;;;;;;;76.40;56.00;22.60;96.40;;;;;;5077050;28;8768;-65
2021/12/21 03:28:50;;;;;;;;;71.40;58.00;22.60;96.30;;;;;;5060510;28;8753;-65
2021/12/21 03:31:17;;;;;;;;;74.00;56.00;22.70;96.60;;;;;;5078727;28;8768;-65
2021/12/21 03:33:43;;;;;;;;;66.60;47.60;22.90;95.90;;;;;;5078167;28;8941;-65
2021/12/21 03:36:10;;;;;;;;;75.20;58.20;22.90;96.30;;;;;;5077740;28;8795;-65
2021/12/21 03:38:39;;;;;;;;;72.00;55.60;23.10;95.90;;;;;;5076922;28;8803;-65
2021/12/21 03:41:12;;;;;;;;;78.60;60.00;23.10;95.90;;;;;;5067821;28;8759;-65
2021/12/21 03:43:39;;;;;;;;;76.40;58.20;22.90;95.90;;;;;;5076979;28;8776;-65
2021/12/21 03:46:11;;;;;;;;;78.80;58.60;23.40;95.40;;;;;;5077364;28;8772;-65
2021/12/21 03:48:40;;;;;;;;;79.20;58.20;23.80;95.10;;;;;;5077303;28;8911;-65
2021/12/21 03:51:07;;;;;;;;;77.60;59.60;24.00;95.20;;;;;;5077981;28;8881;-65
2021/12/21 03:53:33;;;;;;;;;67.00;52.80;24.20;94.80;;;;;;5077495;28;9405;-65
2021/12/21 03:58:53;;;;;;;;;73.00;52.00;24.30;94.20;;;;;;5053983;28;8891;-66
2021/12/21 04:01:20;;;;;;;;;73.40;53.40;24.40;93.70;;;;;;5076575;28;8777;-66
2021/12/21 04:03:46;;;;;;;;;68.50;53.25;24.20;94.30;;;;;;5077621;28;8785;-65
2021/12/21 04:06:14;;;;;;;;;65.25;51.50;24.10;93.80;;;;;;5077677;28;8741;-65
2021/12/21 04:08:40;;;;;;;;;68.00;51.50;23.90;93.30;;;;;;5077334;28;9455;-65
2021/12/21 04:11:07;;;;;;;;;59.00;47.25;24.30;93.30;;;;;;5076471;28;8807;-66
2021/12/21 04:13:34;;;;;;;;;67.75;52.50;24.50;93.20;;;;;;5077422;28;8741;-66
2021/12/21 04:16:04;;;;;;;;;64.50;50.50;24.70;92.70;;;;;;5077796;28;8749;-66
2021/12/21 04:18:35;;;;;;;;;56.50;45.25;24.70;91.70;;;;;;5043306;28;8851;-66
2021/12/21 04:21:02;;;;;;;;;64.50;49.25;24.80;92.10;;;;;;5077115;28;8771;-66
2021/12/21 04:23:29;;;;;;;;;60.50;47.00;24.80;92.40;;;;;;5059551;28;8779;-66
2021/12/21 04:25:55;;;;;;;;;63.75;49.00;24.90;92.20;;;;;;5059315;28;8753;-66
2021/12/21 04:28:22;;;;;;;;;56.50;44.50;25.10;92.10;;;;;;5077396;28;8745;-66
2021/12/21 04:30:49;;;;;;;;;57.50;45.50;25.20;91.30;;;;;;5053250;28;8747;-65
2021/12/21 04:33:16;;;;;;;;;58.50;46.00;25.40;90.70;;;;;;5057006;28;8751;-65
2021/12/21 04:35:42;;;;;;;;;56.25;44.25;25.60;90.30;;;;;;5055281;28;8747;-66
2021/12/21 04:38:31;;;;;;;;;63.50;48.00;25.50;90.90;;;;;;5056972;28;8750;-66
2021/12/21 04:41:05;;;;;;;;;58.00;46.00;25.60;90.60;;;;;;5056958;28;8828;-66
2021/12/21 04:43:32;;;;;;;;;61.50;48.00;25.50;90.40;;;;;;5056818;28;8746;-66
2021/12/21 04:45:59;;;;;;;;;66.25;50.25;25.20;90.80;;;;;;5064094;28;8769;-66
2021/12/21 04:48:25;;;;;;;;;58.75;47.25;25.20;90.00;;;;;;5055008;28;8789;-65
2021/12/21 04:50:52;;;;;;;;;60.50;46.50;24.90;91.00;;;;;;5057025;28;8754;-66
2021/12/21 04:53:19;;;;;;;;;61.25;47.00;25.20;90.90;;;;;;5055307;28;8796;-66
2021/12/21 04:55:46;;;;;;;;;56.00;44.25;25.40;90.00;;;;;;5056603;28;8753;-66
2021/12/21 04:58:13;;;;;;;;;59.75;46.75;25.60;90.00;;;;;;5057516;28;8768;-66
2021/12/21 05:00:42;;;;;;;;;54.00;41.75;25.80;89.40;;;;;;5056544;28;8758;-65
2021/12/21 05:03:12;;;;;;;;;64.00;46.75;25.90;88.70;;;;;;5055508;28;8805;-66
2021/12/21 05:05:39;;;;;;;;;59.00;46.50;25.90;89.90;;;;;;5056656;28;8793;-66
2021/12/21 05:08:11;;;;;;;;;60.50;49.50;26.10;88.90;;;;;;5056907;28;8750;-66
2021/12/21 05:10:46;;;;;;;;;55.25;44.25;26.30;88.20;;;;;;5056348;28;8754;-66
2021/12/21 05:13:13;;;;;;;;;58.50;46.50;26.30;87.90;;;;;;5057153;28;8803;-65
2021/12/21 05:15:40;;;;;;;;;55.75;44.75;26.40;88.30;;;;;;5038935;28;9299;-66
2021/12/21 05:18:06;;;;;;;;;58.75;46.00;26.40;88.10;;;;;;5056386;28;8745;-66
2021/12/21 05:20:33;;;;;;;;;63.75;47.00;26.40;86.70;;;;;;5056491;28;8780;-66
2021/12/21 05:23:00;;;;;;;;;59.50;46.25;26.40;87.10;;;;;;5056400;28;8785;-66
2021/12/21 05:25:27;;;;;;;;;56.50;45.75;26.20;86.30;;;;;;5056272;28;8750;-66
2021/12/21 05:27:56;;;;;;;;;50.75;41.25;26.10;87.80;;;;;;5057101;28;8746;-66
2021/12/21 05:30:23;;;;;;;;;57.50;44.25;26.20;87.10;;;;;;5056179;28;8754;-66
2021/12/21 05:32:51;;;;;;;;;59.25;45.75;26.30;86.80;;;;;;5056057;28;8749;-66
2021/12/21 05:35:18;;;;;;;;;56.00;44.50;26.60;86.90;;;;;;5056541;28;8769;-66
2021/12/21 05:37:46;;;;;;;;;55.00;44.00;26.80;85.40;;;;;;5055489;28;8915;-66
2021/12/21 05:40:14;;;;;;;;;56.00;45.00;27.00;84.00;;;;;;5057070;28;8772;-66
2021/12/21 05:42:42;;;;;;;;;57.50;44.50;27.10;83.70;;;;;;5056276;28;8753;-66
2021/12/21 05:45:09;;;;;;;;;56.50;45.50;27.20;83.60;;;;;;5058785;28;8872;-65
2021/12/21 05:47:36;;;;;;;;;57.50;44.50;27.20;81.40;;;;;;5055289;28;8804;-66
2021/12/21 05:50:05;;;;;;;;;48.00;40.00;27.10;83.30;;;;;;5038998;28;9448;-66
2021/12/21 05:52:32;;;;;;;;;57.50;45.00;27.10;82.60;;;;;;5039161;28;8745;-66
2021/12/21 05:54:59;;;;;;;;;51.25;40.75;27.00;83.20;;;;;;5040638;28;8745;-66
2021/12/21 05:57:25;;;;;;;;;54.25;44.25;27.00;83.10;;;;;;5040191;28;8760;-66
2021/12/21 05:59:52;;;;;;;;;54.75;42.00;27.20;82.90;;;;;;5040258;28;8740;-66
2021/12/21 06:02:19;;;;;;;;;55.00;44.75;27.30;83.50;;;;;;5056334;28;8790;-67
2021/12/21 06:04:45;;;;;;;;;54.25;44.25;27.40;82.90;;;;;;5060018;28;8836;-66
2021/12/21 06:07:12;;;;;;;;;52.50;40.50;27.50;83.10;;;;;;5059543;28;8734;-66
2021/12/21 06:09:40;;;;;;;;;52.75;43.50;27.70;81.60;;;;;;5059615;28;8752;-66
2021/12/21 06:12:34;;;;;;;;;62.00;45.50;27.70;81.80;;;;;;5075407;28;8781;-66
2021/12/21 06:28:02;;;;;;;;;52.00;41.50;27.30;80.80;;;;;;5060171;28;8746;-66
2021/12/21 06:30:28;;;;;;;;;52.75;42.75;27.30;80.90;;;;;;5058014;28;8754;-66
2021/12/21 06:32:55;;;;;;;;;55.75;45.00;27.30;79.30;;;;;;5058174;28;8815;-65
2021/12/21 06:35:22;;;;;;;;;53.50;42.25;27.50;79.90;;;;;;5059135;28;8782;-65
2021/12/21 06:37:49;;;;;;;;;56.50;42.00;27.30;81.80;;;;;;5059449;28;9173;-66
2021/12/21 06:40:16;;;;;;;;;53.75;42.00;27.40;81.90;;;;;;5059797;28;8733;-65
2021/12/21 06:42:45;;;;;;;;;50.75;42.50;27.60;80.90;;;;;;5057854;28;9516;-66
2021/12/21 06:45:25;;;;;;;;;53.50;43.25;27.60;79.50;;;;;;5059154;28;8754;-65
2021/12/21 06:53:22;;;;;;;;;54.25;43.75;27.40;81.70;;;;;;5078728;28;8764;-65
2021/12/21 06:55:48;;;;;;;;;55.25;43.50;27.50;80.80;;;;;;5077982;28;8755;-66
2021/12/21 06:58:15;;;;;;;;;55.50;43.00;27.40;80.90;;;;;;5079379;28;8809;-66
2021/12/21 07:00:43;;;;;;;;;55.25;43.25;27.60;80.90;;;;;;5078507;28;8840;-67
2021/12/21 07:03:11;;;;;;;;;54.25;44.00;27.90;80.30;;;;;;5078459;28;8790;-66
2021/12/21 07:05:40;;;;;;;;;56.50;43.25;28.00;78.30;;;;;;5078277;28;8776;-66
2021/12/21 07:08:14;;;;;;;;;50.25;39.50;28.00;78.90;;;;;;5078676;28;8814;-66
2021/12/21 07:10:50;;;;;;;;;52.00;41.50;28.10;80.00;;;;;;5078295;28;8806;-66
2021/12/21 07:18:49;;;;;;;;;45.25;35.75;28.40;76.00;;;;;;5063761;28;8756;-66
2021/12/21 07:21:16;;;;;;;;;51.25;41.00;28.60;75.40;;;;;;5078684;28;8733;-66
2021/12/21 07:23:43;;;;;;;;;47.00;39.50;28.50;75.00;;;;;;5078397;28;8862;-66
2021/12/21 07:26:09;;;;;;;;;48.50;39.50;28.50;74.80;;;;;;5078595;28;8839;-65
2021/12/21 07:28:36;;;;;;;;;44.50;35.75;28.60;74.90;;;;;;5078193;28;8759;-66
2021/12/21 07:31:03;;;;;;;;;48.00;37.50;28.60;74.10;;;;;;5079012;28;8776;-66
2021/12/21 07:33:29;;;;;;;;;38.50;33.25;28.50;74.20;;;;;;5078102;28;8732;-66
2021/12/21 07:35:56;;;;;;;;;45.50;33.50;28.50;73.90;;;;;;5078271;28;8757;-66
2021/12/21 07:38:30;;;;;;;;;46.75;36.00;28.60;72.60;;;;;;5077816;28;8870;-66
2021/12/21 07:41:00;;;;;;;;;40.25;33.00;28.60;71.20;;;;;;5078103;28;8796;-66
2021/12/21 07:43:27;;;;;;;;;42.75;33.25;28.60;70.60;;;;;;5077706;28;9504;-66
2021/12/21 07:45:53;;;;;;;;;34.50;31.50;28.20;72.30;;;;;;5040616;28;8782;-66
2021/12/21 07:48:20;;;;;;;;;43.00;34.25;28.20;72.70;;;;;;5057859;28;8783;-66
2021/12/21 07:50:47;;;;;;;;;34.50;32.00;28.40;71.60;;;;;;5058058;28;8739;-65
2021/12/21 07:53:15;;;;;;;;;38.50;32.75;28.50;70.80;;;;;;5057646;28;8777;-66
2021/12/21 07:55:42;;;;;;;;;40.75;33.75;28.60;70.70;;;;;;5057644;28;8739;-65
2021/12/21 07:58:10;;;;;;;;;39.00;33.00;28.60;72.10;;;;;;5058323;28;8808;-66
2021/12/21 08:00:37;;;;;;;;;39.25;34.75;28.60;73.20;;;;;;5061175;28;8757;-66
2021/12/21 08:03:04;;;;;;;;;41.00;33.50;28.60;73.20;;;;;;5059977;28;9376;-66
2021/12/21 08:05:34;;;;;;;;;40.50;34.75;28.60;72.90;;;;;;5077653;28;8744;-66
2021/12/21 08:08:11;;;;;;;;;39.00;34.00;28.60;72.30;;;;;;5077564;28;8776;-66
2021/12/21 08:11:07;;;;;;;;;38.50;32.50;28.60;71.80;;;;;;5077311;28;8740;-66
2021/12/21 08:13:35;;;;;;;;;41.75;35.25;28.50;71.30;;;;;;5077390;28;8804;-66
2021/12/21 08:16:01;;;;;;;;;44.50;36.25;28.60;72.60;;;;;;5078364;28;8806;-66
2021/12/21 08:18:28;;;;;;;;;39.50;34.25;28.40;73.40;;;;;;5076926;28;8823;-66
2021/12/21 08:20:55;;;;;;;;;38.75;34.50;28.60;73.10;;;;;;5076990;28;8860;-65
2021/12/21 08:23:22;;;;;;;;;32.50;31.00;28.20;71.20;;;;;;5077200;28;8772;-66
2021/12/21 08:25:49;;;;;;;;;39.50;32.75;28.00;70.80;;;;;;5077447;28;8756;-66
2021/12/21 08:28:15;;;;;;;;;39.75;33.50;28.10;72.40;;;;;;5076599;28;8709;-66
2021/12/21 08:30:42;;;;;;;;;39.00;32.25;28.30;71.30;;;;;;5077063;28;8749;-66
2021/12/21 08:33:09;;;;;;;;;44.50;35.75;28.40;72.30;;;;;;5077126;28;8760;-65
2021/12/21 08:35:35;;;;;;;;;39.00;32.25;28.50;71.90;;;;;;5076797;28;9061;-66
2021/12/21 08:38:07;;;;;;;;;38.00;30.75;28.60;71.50;;;;;;5076903;28;8848;-66
2021/12/21 08:40:39;;;;;;;;;39.00;32.50;28.80;71.10;;;;;;5076570;28;8747;-66
2021/12/21 08:43:11;;;;;;;;;42.50;32.25;28.70;71.50;;;;;;5060821;28;8738;-66
2021/12/21 08:45:38;;;;;;;;;35.75;31.75;28.80;71.50;;;;;;5076449;28;8768;-66
2021/12/21 08:48:05;;;;;;;;;39.00;34.25;28.90;69.90;;;;;;5076687;28;8768;-66
2021/12/21 08:50:35;;;;;;;;;40.00;33.25;28.80;70.00;;;;;;5076993;28;8880;-66
2021/12/21 08:53:02;;;;;;;;;37.75;32.25;28.80;69.60;;;;;;5075618;28;8765;-65
2021/12/21 08:55:28;;;;;;;;;39.00;33.50;28.90;70.50;;;;;;5076590;28;8740;-66
2021/12/21 08:57:55;;;;;;;;;38.75;32.75;28.90;69.00;;;;;;5077405;28;8713;-66
2021/12/21 09:00:22;;;;;;;;;39.50;34.00;28.90;69.30;;;;;;5076375;28;8717;-65
2021/12/21 09:02:50;;;;;;;;;45.25;36.25;28.80;69.00;;;;;;5076644;28;8733;-65
2021/12/21 09:05:19;;;;;;;;;41.75;35.00;28.80;68.90;;;;;;5076963;28;8756;-65
2021/12/21 09:07:50;;;;;;;;;40.25;35.00;28.50;70.00;;;;;;5076635;28;8811;-66
2021/12/21 09:10:18;;;;;;;;;44.25;35.50;28.50;70.30;;;;;;5077518;28;8741;-65
2021/12/21 09:12:47;;;;;;;;;43.00;36.00;28.60;70.20;;;;;;5076689;28;9081;-65
2021/12/21 09:15:14;;;;;;;;;39.50;33.00;28.60;71.00;;;;;;5076692;28;8737;-66
2021/12/21 09:17:41;;;;;;;;;42.00;34.00;28.70;70.70;;;;;;5076392;28;8721;-66
2021/12/21 09:20:09;;;;;;;;;46.25;34.75;28.70;70.90;;;;;;5075609;28;8736;-65
2021/12/21 09:22:36;;;;;;;;;42.00;35.00;28.80;71.00;;;;;;5076302;28;8719;-66
2021/12/21 09:25:04;;;;;;;;;35.75;31.75;28.80;68.90;;;;;;5076942;28;8755;-66
2021/12/21 09:27:30;;;;;;;;;41.00;33.00;28.80;68.30;;;;;;5076085;28;8721;-66
2021/12/21 09:29:57;;;;;;;;;33.25;31.00;28.90;68.70;;;;;;5076336;28;8702;-66
2021/12/21 09:32:25;;;;;;;;;38.75;34.25;29.00;69.40;;;;;;5076168;28;8811;-66
2021/12/21 09:34:51;;;;;;;;;46.00;34.00;29.00;69.60;;;;;;5058464;28;8744;-66
2021/12/21 09:37:20;;;;;;;;;40.25;34.00;29.00;69.00;;;;;;5076448;28;8745;-66
2021/12/21 09:39:49;;;;;;;;;36.25;33.25;29.00;68.80;;;;;;5058322;28;8749;-66
2021/12/21 09:42:17;;;;;;;;;43.50;35.25;28.90;69.50;;;;;;5076341;28;8748;-66
2021/12/21 09:44:44;;;;;;;;;40.50;32.75;29.00;69.50;;;;;;5076133;28;8823;-66
2021/12/21 09:47:11;;;;;;;;;33.25;31.75;28.90;69.00;;;;;;5075753;28;8760;-66
2021/12/21 09:49:38;;;;;;;;;42.25;34.25;28.90;69.20;;;;;;5058204;28;8807;-66
2021/12/21 09:52:06;;;;;;;;;37.25;33.25;28.90;70.70;;;;;;5075744;28;9405;-66
2021/12/21 09:54:36;;;;;;;;;35.50;31.50;28.80;70.00;;;;;;5076544;28;8757;-66
2021/12/21 09:57:04;;;;;;;;;44.25;33.75;28.80;69.60;;;;;;5076660;28;8749;-65
2021/12/21 09:59:30;;;;;;;;;37.00;33.75;28.80;69.00;;;;;;5058386;28;8826;-66
2021/12/21 10:01:57;;;;;;;;;34.75;31.50;28.70;70.10;;;;;;5076074;28;8783;-66
2021/12/21 10:04:25;;;;;;;;;35.75;32.25;28.70;70.60;;;;;;5076361;28;8764;-65
2021/12/21 10:06:54;;;;;;;;;38.75;32.25;28.60;70.20;;;;;;5076427;28;8851;-65
2021/12/21 10:09:23;;;;;;;;;40.50;33.00;28.60;71.00;;;;;;5075832;28;8764;-65
2021/12/21 10:11:50;;;;;;;;;37.75;32.75;28.50;72.20;;;;;;5058499;28;8757;-65
2021/12/21 10:14:23;;;;;;;;;36.25;32.50;28.40;73.20;;;;;;5076077;28;8768;-66
2021/12/21 10:16:59;;;;;;;;;31.25;29.50;28.30;74.40;;;;;;5028119;28;8785;-66
2021/12/21 10:19:25;;;;;;;;;41.25;33.00;28.20;75.70;;;;;;5039396;28;8861;-66
2021/12/21 10:21:52;;;;;;;;;37.25;33.00;28.00;76.40;;;;;;5038919;28;8739;-65
2021/12/21 10:24:26;;;;;;;;;41.75;35.00;27.90;76.70;;;;;;5055893;28;8775;-66
2021/12/21 10:26:53;;;;;;;;;39.75;32.25;27.80;77.50;;;;;;5056093;28;8766;-65
2021/12/21 10:29:20;;;;;;;;;36.25;32.25;27.80;77.90;;;;;;5055758;28;8762;-66
2021/12/21 10:31:48;;;;;;;;;40.75;33.75;27.70;78.20;;;;;;5054091;28;8779;-66
2021/12/21 10:34:19;;;;;;;;;42.00;35.00;27.60;77.20;;;;;;5080022;28;8737;-65
2021/12/21 10:36:49;;;;;;;;;45.25;35.25;27.50;76.80;;;;;;5079645;28;8733;-65
2021/12/21 10:39:28;;;;;;;;;43.25;35.75;27.50;76.60;;;;;;5061613;28;8745;-65
2021/12/21 10:41:59;;;;;;;;;41.75;34.75;27.50;75.80;;;;;;5079545;28;8756;-65
2021/12/21 10:44:26;;;;;;;;;39.00;33.50;27.40;77.40;;;;;;5078646;28;8780;-65
2021/12/21 10:46:56;;;;;;;;;45.75;37.25;27.30;77.20;;;;;;5044621;28;8859;-65
2021/12/21 10:49:26;;;;;;;;;44.75;38.50;27.20;77.40;;;;;;5079036;28;8874;-65
2021/12/21 10:51:57;;;;;;;;;46.00;38.00;27.20;78.00;;;;;;5079413;28;8724;-65
2021/12/21 10:54:30;;;;;;;;;47.25;38.50;27.10;78.00;;;;;;5078882;28;8781;-65
2021/12/21 10:57:00;;;;;;;;;36.75;31.25;27.00;78.80;;;;;;5079239;28;8784;-65
2021/12/21 10:59:37;;;;;;;;;51.75;41.75;26.90;79.40;;;;;;5061045;28;8843;-66
2021/12/21 11:02:14;;;;;;;;;52.50;41.75;26.90;79.80;;;;;;5078893;28;9444;-65
2021/12/21 11:04:45;;;;;;;;;57.00;42.75;26.80;80.30;;;;;;5078420;28;8787;-65
2021/12/21 11:07:38;;;;;;;;;50.25;40.25;26.70;80.70;;;;;;5078696;28;8823;-65
2021/12/21 11:10:16;;;;;;;;;49.75;41.00;26.70;81.00;;;;;;5079450;28;8771;-65
2021/12/21 11:12:50;;;;;;;;;44.50;37.75;26.60;81.00;;;;;;5078838;28;8785;-65
2021/12/21 11:15:21;;;;;;;;;50.75;39.25;26.60;81.30;;;;;;5077542;28;8781;-66
2021/12/21 11:17:51;;;;;;;;;57.75;43.75;26.40;83.30;;;;;;5061129;28;8748;-65
2021/12/21 11:20:18;;;;;;;;;62.00;47.00;26.30;84.00;;;;;;5078147;28;8870;-66
2021/12/21 11:22:45;;;;;;;;;52.25;42.75;26.30;84.20;;;;;;5078556;28;8776;-65
2021/12/21 11:25:13;;;;;;;;;66.00;49.50;26.30;86.60;;;;;;5079298;28;8808;-65
2021/12/21 11:27:41;;;;;;;;;74.20;58.20;26.20;86.30;;;;;;5078719;28;8795;-65
2021/12/21 11:30:13;;;;;;;;;74.40;57.80;26.20;88.10;;;;;;5078447;28;8748;-65
2021/12/21 11:32:45;;;;;;;;;73.80;58.00;26.10;87.80;;;;;;5040924;28;9017;-65
2021/12/21 11:37:40;;;;;;;;;77.20;62.60;25.80;89.60;;;;;;5040378;28;8739;-65
2021/12/21 11:40:08;;;;;;;;;70.80;54.40;25.80;89.00;;;;;;5058539;28;8773;-65
2021/12/21 11:42:52;;;;;;;;;75.40;58.40;25.70;90.40;;;;;;5057356;28;8741;-65
2021/12/21 11:45:20;;;;;;;;;73.80;56.00;25.70;90.30;;;;;;5042846;28;8844;-66
2021/12/21 11:48:09;;;;;;;;;74.40;59.80;25.60;90.80;;;;;;5077558;28;8818;-65
2021/12/21 11:50:37;;;;;;;;;66.20;51.40;25.60;90.80;;;;;;5078205;28;8768;-65
2021/12/21 11:53:10;;;;;;;;;77.60;59.00;25.50;91.40;;;;;;5070027;28;8788;-65
2021/12/21 11:55:38;;;;;;;;;75.00;59.00;25.00;92.60;;;;;;5060268;28;8721;-65
2021/12/21 11:58:22;;;;;;;;;92.80;85.00;24.70;93.10;;;;;;5078804;28;8741;-65
2021/12/21 12:01:28;;;;;;;;;99.20;86.60;24.70;92.20;;;;;;5061018;28;8755;-65
2021/12/21 12:03:57;;;;;;;;;101.40;92.00;24.70;91.50;;;;;;4996882;28;8790;-65
2021/12/21 12:06:24;;;;;;;;;106.00;93.60;24.80;91.30;;;;;;4979858;28;8797;-65
2021/12/21 12:09:04;;;;;;;;;93.00;79.40;24.90;91.30;;;;;;4980014;28;8789;-65
2021/12/21 12:11:36;;;;;;;;;88.80;77.60;24.90;91.90;;;;;;4995746;28;8811;-65
2021/12/21 12:14:13;;;;;;;;;83.80;69.60;24.90;91.90;;;;;;4986534;28;8793;-65
2021/12/21 12:16:51;;;;;;;;;84.80;72.40;24.80;92.00;;;;;;4986073;28;9488;-65
2021/12/21 12:19:19;;;;;;;;;94.40;81.80;24.80;91.90;;;;;;4977500;28;8786;-65
2021/12/21 12:22:15;;;;;;;;;87.40;75.00;24.70;92.20;;;;;;4992262;28;8796;-65
2021/12/21 12:24:56;;;;;;;;;81.00;73.40;24.70;92.10;;;;;;4980280;28;9997;-65
2021/12/21 12:27:28;;;;;;;;;86.60;77.40;24.70;91.90;;;;;;4960067;28;8801;-65
2021/12/21 12:29:56;;;;;;;;;89.40;79.00;24.70;92.60;;;;;;4976626;28;8907;-65
2021/12/21 12:32:34;;;;;;;;;92.20;77.20;24.70;92.30;;;;;;4993528;28;8798;-65
2021/12/21 12:35:17;;;;;;;;;99.40;85.60;24.60;92.70;;;;;;5036827;28;8751;-65
2021/12/21 12:38:09;;;;;;;;;119.20;95.40;24.60;92.60;;;;;;5056799;28;8754;-65
2021/12/21 12:40:57;;;;;;;;;107.80;91.40;24.60;92.50;;;;;;5057277;28;8762;-65
2021/12/21 12:43:32;;;;;;;;;114.00;101.20;24.60;92.50;;;;;;5057238;28;8763;-65
2021/12/21 12:46:06;;;;;;;;;115.80;97.00;24.40;92.90;;;;;;5063906;28;8793;-65
2021/12/21 12:48:48;;;;;;;;;127.00;111.60;24.40;92.80;;;;;;5076449;28;8776;-65
2021/12/21 12:51:28;;;;;;;;;126.80;103.40;24.40;92.00;;;;;;5059009;28;8760;-65
2021/12/21 12:53:55;;;;;;;;;113.80;100.40;24.40;91.60;;;;;;5076062;28;8756;-64
2021/12/21 12:56:22;;;;;;;;;118.20;98.60;24.30;91.80;;;;;;5076827;28;9048;-65
2021/12/21 12:58:53;;;;;;;;;104.20;85.00;24.20;91.90;;;;;;5076687;28;8765;-65
2021/12/21 13:01:23;;;;;;;;;108.40;96.60;24.10;93.00;;;;;;5077035;28;9433;-65
2021/12/21 13:03:50;;;;;;;;;116.20;92.60;24.10;92.50;;;;;;5058846;28;8808;-65
2021/12/21 13:06:22;;;;;;;;;105.00;85.80;24.00;93.80;;;;;;5076675;28;8893;-65
2021/12/21 13:08:49;;;;;;;;;109.60;95.20;23.90;94.20;;;;;;5076755;28;8761;-65
2021/12/21 13:11:29;;;;;;;;;107.40;91.40;23.90;93.80;;;;;;5076844;28;8858;-65
2021/12/21 13:14:00;;;;;;;;;96.40;86.40;23.80;93.60;;;;;;5058436;28;8757;-65
2021/12/21 13:16:28;;;;;;;;;109.20;93.80;23.60;94.10;;;;;;5076248;28;8756;-65
2021/12/21 13:18:59;;;;;;;;;89.20;83.00;23.60;95.00;;;;;;5075892;28;8725;-65
2021/12/21 13:21:34;;;;;;;;;92.00;79.20;23.50;93.80;;;;;;5076206;28;8977;-65
2021/12/21 13:24:01;;;;;;;;;98.80;88.60;23.70;93.70;;;;;;5076576;28;8759;-65
2021/12/21 13:26:33;;;;;;;;;99.80;86.40;23.80;92.80;;;;;;5076437;28;8761;-65
2021/12/21 13:29:00;;;;;;;;;96.40;83.20;23.90;93.10;;;;;;5076397;28;8733;-65
2021/12/21 13:31:27;;;;;;;;;87.00;73.40;23.90;93.80;;;;;;5075962;28;8737;-65
2021/12/21 13:33:58;;;;;;;;;96.80;83.20;23.90;93.90;;;;;;5076831;28;8772;-65
2021/12/21 13:36:36;;;;;;;;;98.80;84.60;23.70;94.10;;;;;;5050930;28;8756;-65
2021/12/21 13:39:28;;;;;;;;;101.80;87.20;23.70;94.30;;;;;;5058885;28;8800;-65
2021/12/21 13:41:57;;;;;;;;;99.40;85.20;23.80;94.20;;;;;;5076754;28;8741;-65
2021/12/21 13:44:47;;;;;;;;;103.80;89.00;23.90;94.20;;;;;;5075913;28;8800;-65
2021/12/21 13:47:34;;;;;;;;;102.60;89.40;23.90;94.40;;;;;;5074552;28;8757;-65
2021/12/21 13:50:13;;;;;;;;;111.00;90.40;23.80;94.60;;;;;;5076597;28;8760;-65
2021/12/21 13:52:42;;;;;;;;;93.20;92.00;23.70;94.60;;;;;;5076718;28;8752;-65
2021/12/21 13:55:33;;;;;;;;;96.20;86.20;23.70;94.50;;;;;;5075725;28;8733;-65
2021/12/21 13:58:05;;;;;;;;;100.80;89.40;23.50;94.70;;;;;;5076679;28;8764;-65
2021/12/21 14:00:34;;;;;;;;;114.40;100.60;23.10;96.00;;;;;;5041816;28;8772;-65
2021/12/21 14:03:16;;;;;;;;;122.00;105.00;22.70;97.50;;;;;;5076416;28;8816;-65